createdAt,value
2023-03-22T00:01:58.794Z,0.93
2023-03-22T00:04:26.389Z,0.80
2023-03-22T00:06:52.947Z,0.95
2023-03-22T00:09:19.469Z,0.45
2023-03-22T00:11:46.360Z,0.60
2023-03-22T00:14:12.931Z,1.17
2023-03-22T00:16:39.477Z,1.48
2023-03-22T00:19:06.032Z,0.57
2023-03-22T00:21:32.554Z,0.88
2023-03-22T00:23:59.094Z,1.48
2023-03-22T00:26:25.867Z,1.05
2023-03-22T00:28:52.436Z,0.70
2023-03-22T00:31:20.029Z,0.93
2023-03-22T00:33:46.617Z,0.57
2023-03-22T00:36:13.215Z,1.42
2023-03-22T00:38:43.413Z,0.70
2023-03-22T00:41:16.869Z,1.05
2023-03-22T00:43:44.380Z,0.70
2023-03-22T00:46:12.220Z,1.33
2023-03-22T00:48:39.505Z,0.93
2023-03-22T00:51:06.977Z,0.80
2023-03-22T00:53:35.297Z,0.88
2023-03-22T00:56:04.081Z,0.68
2023-03-22T00:58:30.720Z,0.82
2023-03-22T01:00:57.580Z,1.17
2023-03-22T01:03:24.782Z,0.70
2023-03-22T01:05:55.658Z,1.05
2023-03-22T01:08:23.380Z,1.75
2023-03-22T01:10:50.575Z,0.70
2023-03-22T01:13:18.058Z,0.77
2023-03-22T01:15:45.211Z,0.93
2023-03-22T01:18:11.747Z,0.60
2023-03-22T01:20:38.702Z,0.55
2023-03-22T01:23:06.307Z,0.98
2023-03-22T01:25:33.291Z,0.75
2023-03-22T01:28:02.390Z,0.77
2023-03-22T01:30:30.015Z,0.95
2023-03-22T01:32:56.653Z,1.13
2023-03-22T01:35:23.497Z,0.50
2023-03-22T01:37:50.320Z,1.08
2023-03-22T01:40:17.209Z,0.70
2023-03-22T01:42:43.859Z,1.02
2023-03-22T01:51:03.395Z,1.33
2023-03-22T01:53:34.587Z,1.25
2023-03-22T01:56:02.285Z,1.02
2023-03-22T01:58:29.204Z,0.57
2023-03-22T02:00:56.512Z,0.60
2023-03-22T02:03:32.581Z,1.00
2023-03-22T02:05:59.207Z,1.23
2023-03-22T02:08:25.811Z,0.63
2023-03-22T02:10:52.602Z,0.70
2023-03-22T02:16:36.277Z,0.50
2023-03-22T02:19:30.905Z,0.82
2023-03-22T02:22:39.172Z,0.65
2023-03-22T02:28:24.619Z,0.95
2023-03-22T02:34:28.714Z,1.98
2023-03-22T02:40:20.178Z,1.13
2023-03-22T02:48:45.402Z,1.40
2023-03-22T02:51:21.375Z,1.40
2023-03-22T02:53:54.650Z,1.95
2023-03-22T02:56:27.344Z,1.33
2023-03-22T02:58:58.364Z,1.77
2023-03-22T03:01:48.564Z,2.15
2023-03-22T03:04:21.570Z,2.45
2023-03-22T03:06:51.804Z,2.15
2023-03-22T03:09:20.614Z,1.65
2023-03-22T03:11:49.944Z,2.03
2023-03-22T03:14:26.747Z,1.70
2023-03-22T03:17:19.749Z,2.63
2023-03-22T03:22:38.515Z,0.52
2023-03-22T03:27:50.988Z,0.82
2023-03-22T03:30:27.215Z,0.65
2023-03-22T03:33:00.546Z,1.58
2023-03-22T03:35:33.700Z,0.57
2023-03-22T03:38:08.753Z,1.25
2023-03-22T03:40:40.782Z,1.02
2023-03-22T03:43:09.899Z,0.93
2023-03-22T03:45:37.754Z,0.82
2023-03-22T03:48:09.253Z,1.08
2023-03-22T03:50:35.952Z,0.50
2023-03-22T03:53:02.865Z,0.80
2023-03-22T03:55:31.001Z,0.80
2023-03-22T03:57:57.542Z,1.40
2023-03-22T04:00:24.087Z,0.63
2023-03-22T04:02:50.817Z,0.93
2023-03-22T04:05:17.612Z,0.47
2023-03-22T04:07:44.210Z,0.75
2023-03-22T04:10:10.918Z,0.43
2023-03-22T04:12:37.540Z,0.77
2023-03-22T04:15:04.311Z,0.40
2023-03-22T04:17:32.102Z,0.98
2023-03-22T04:19:58.840Z,0.70
2023-03-22T04:22:26.669Z,0.38
2023-03-22T04:24:53.312Z,0.65
2023-03-22T04:27:22.077Z,0.43
2023-03-22T04:29:48.683Z,1.15
2023-03-22T04:32:16.942Z,0.85
2023-03-22T04:34:43.605Z,0.95
2023-03-22T04:37:10.139Z,0.60
2023-03-22T04:39:36.947Z,0.52
2023-03-22T04:42:03.677Z,0.35
2023-03-22T04:44:30.353Z,0.80
2023-03-22T04:46:57.556Z,1.00
2023-03-22T04:49:24.508Z,0.85
2023-03-22T04:51:51.899Z,0.63
2023-03-22T04:54:18.442Z,0.75
2023-03-22T04:56:45.006Z,0.57
2023-03-22T04:59:11.793Z,0.40
2023-03-22T05:01:38.480Z,0.65
2023-03-22T05:04:05.302Z,0.30
2023-03-22T05:06:33.359Z,0.38
2023-03-22T05:09:01.141Z,0.50
2023-03-22T05:11:28.167Z,0.85
2023-03-22T05:13:55.778Z,0.68
2023-03-22T05:16:22.974Z,1.08
2023-03-22T05:18:54.351Z,0.40
2023-03-22T05:21:28.117Z,0.63
2023-03-22T05:23:56.695Z,0.20
2023-03-22T05:26:26.331Z,0.47
2023-03-22T05:28:54.914Z,0.73
2023-03-22T05:31:22.941Z,0.75
2023-03-22T05:33:50.559Z,1.50
2023-03-22T05:36:19.353Z,0.55
2023-03-22T05:38:46.659Z,0.50
2023-03-22T05:41:14.011Z,1.02
2023-03-22T05:43:40.701Z,0.55
2023-03-22T05:46:09.169Z,1.17
2023-03-22T05:48:36.779Z,0.85
2023-03-22T05:51:07.004Z,0.52
2023-03-22T05:53:33.708Z,0.43
2023-03-22T05:56:00.859Z,0.43
2023-03-22T05:58:30.593Z,0.30
2023-03-22T06:01:01.033Z,0.47
2023-03-22T06:03:28.919Z,0.38
2023-03-22T06:05:55.623Z,0.70
2023-03-22T06:08:26.394Z,0.50
2023-03-22T06:10:53.982Z,0.93
2023-03-22T06:13:21.025Z,3.17
2023-03-22T06:15:47.815Z,1.15
2023-03-22T06:18:14.362Z,1.00
2023-03-22T06:20:41.540Z,0.73
2023-03-22T06:23:08.403Z,0.98
2023-03-22T06:25:35.111Z,0.30
2023-03-22T06:28:02.146Z,0.85
2023-03-22T06:30:28.780Z,0.47
2023-03-22T06:32:55.529Z,1.23
2023-03-22T06:35:22.116Z,0.93
2023-03-22T06:37:48.701Z,0.95
2023-03-22T06:40:15.437Z,1.73
2023-03-22T06:42:41.982Z,0.95
2023-03-22T06:45:09.058Z,0.98
2023-03-22T06:47:35.664Z,0.65
2023-03-22T06:50:02.382Z,1.20
2023-03-22T06:52:28.905Z,2.20
2023-03-22T06:54:56.858Z,1.20
2023-03-22T06:57:23.467Z,0.82
2023-03-22T06:59:50.026Z,1.30
2023-03-22T07:02:16.870Z,1.90
2023-03-22T07:04:45.360Z,1.30
2023-03-22T07:07:12.305Z,2.40
2023-03-22T07:09:39.743Z,2.70
2023-03-22T07:12:07.093Z,2.67
2023-03-22T07:14:34.039Z,2.25
2023-03-22T07:17:00.751Z,2.95
2023-03-22T07:19:27.788Z,2.85
2023-03-22T07:21:54.360Z,1.48
2023-03-22T07:24:21.041Z,1.33
2023-03-22T07:26:47.645Z,2.10
2023-03-22T07:29:14.192Z,3.13
2023-03-22T07:31:40.745Z,3.42
2023-03-22T07:34:07.319Z,2.88
2023-03-22T07:36:33.993Z,2.40
2023-03-22T07:39:00.784Z,1.92
2023-03-22T07:41:30.170Z,1.88
2023-03-22T07:44:04.930Z,2.55
2023-03-22T07:46:37.943Z,2.10
2023-03-22T07:49:04.653Z,1.45
2023-03-22T07:51:31.199Z,2.40
2023-03-22T07:53:57.729Z,4.78
2023-03-22T07:56:24.314Z,2.30
2023-03-22T07:58:51.028Z,2.75
2023-03-22T08:01:17.590Z,2.83
2023-03-22T08:03:44.261Z,2.45
2023-03-22T08:06:12.478Z,2.65
2023-03-22T08:08:39.302Z,1.63
2023-03-22T08:11:07.347Z,2.20
2023-03-22T08:13:34.374Z,2.17
2023-03-22T08:16:00.983Z,2.20
2023-03-22T08:18:27.617Z,1.88
2023-03-22T08:20:59.388Z,1.80
2023-03-22T08:23:40.618Z,1.83
2023-03-22T08:26:07.890Z,1.73
2023-03-22T08:28:34.429Z,2.25
2023-03-22T08:31:01.151Z,1.13
2023-03-22T08:33:28.700Z,2.50
2023-03-22T08:36:06.613Z,1.70
2023-03-22T08:38:33.268Z,1.10
2023-03-22T08:40:59.829Z,1.50
2023-03-22T08:43:26.424Z,1.77
2023-03-22T08:45:53.005Z,1.20
2023-03-22T08:48:19.649Z,1.67
2023-03-22T08:50:46.272Z,1.50
2023-03-22T08:53:13.944Z,1.73
2023-03-22T08:55:44.836Z,1.92
2023-03-22T08:58:13.422Z,2.13
2023-03-22T09:00:48.610Z,1.38
2023-03-22T09:03:16.257Z,1.70
2023-03-22T09:05:42.992Z,1.73
2023-03-22T09:08:18.151Z,2.50
2023-03-22T09:10:51.249Z,1.70
2023-03-22T09:13:18.241Z,2.45
2023-03-22T09:15:45.256Z,1.85
2023-03-22T09:18:12.400Z,1.27
2023-03-22T09:20:39.645Z,2.72
2023-03-22T09:23:06.963Z,2.47
2023-03-22T09:25:33.594Z,2.33
2023-03-22T09:28:00.155Z,2.38
2023-03-22T09:30:27.434Z,2.85
2023-03-22T09:32:54.385Z,1.65
2023-03-22T09:35:21.144Z,1.55
2023-03-22T09:37:49.544Z,2.28
2023-03-22T09:40:17.778Z,1.90
2023-03-22T09:42:48.268Z,1.55
2023-03-22T09:45:27.734Z,2.00
2023-03-22T09:47:55.981Z,1.45
2023-03-22T09:50:26.685Z,1.98
2023-03-22T09:52:53.831Z,1.90
2023-03-22T09:55:30.406Z,1.85
2023-03-22T09:58:08.013Z,2.35
2023-03-22T10:01:01.333Z,1.65
2023-03-22T10:04:08.060Z,2.00
2023-03-22T10:06:34.700Z,2.17
2023-03-22T10:09:26.966Z,2.22
2023-03-22T10:12:04.997Z,1.85
2023-03-22T10:17:15.939Z,2.22
2023-03-22T10:19:52.293Z,2.90
2023-03-22T10:22:25.299Z,2.22
2023-03-22T10:24:53.362Z,2.75
2023-03-22T10:27:22.070Z,1.40
2023-03-22T10:29:53.579Z,2.15
2023-03-22T10:32:26.378Z,1.90
2023-03-22T10:34:52.994Z,2.45
2023-03-22T10:37:24.866Z,2.10
2023-03-22T10:39:55.389Z,2.53
2023-03-22T10:42:28.771Z,2.38
2023-03-22T10:45:01.317Z,2.05
2023-03-22T10:47:54.102Z,2.00
2023-03-22T10:50:26.669Z,2.13
2023-03-22T10:55:45.576Z,1.45
2023-03-22T11:03:29.634Z,3.35
2023-03-22T11:06:20.996Z,2.33
2023-03-22T11:08:52.225Z,2.05
2023-03-22T11:16:51.133Z,3.70
2023-03-22T11:19:26.506Z,3.63
2023-03-22T11:21:55.615Z,4.75
2023-03-22T11:24:25.945Z,3.83
2023-03-22T11:27:22.522Z,3.95
2023-03-22T11:29:51.576Z,3.90
2023-03-22T11:32:31.130Z,3.40
2023-03-22T11:37:44.394Z,1.73
2023-03-22T11:40:19.678Z,2.10
2023-03-22T11:42:49.392Z,2.35
2023-03-22T11:45:23.366Z,3.72
2023-03-22T11:47:50.026Z,2.15
2023-03-22T11:50:27.739Z,1.65
2023-03-22T11:52:54.571Z,1.77
2023-03-22T11:55:21.195Z,2.03
2023-03-22T11:57:49.215Z,2.05
2023-03-22T12:02:58.067Z,2.00
2023-03-22T12:05:28.414Z,1.85
2023-03-22T12:08:02.076Z,1.90
2023-03-22T12:13:14.997Z,2.05
2023-03-22T12:15:48.603Z,2.10
2023-03-22T12:18:22.582Z,1.83
2023-03-22T12:20:57.407Z,2.22
2023-03-22T12:23:29.011Z,1.35
2023-03-22T12:26:04.122Z,1.85
2023-03-22T12:28:40.739Z,2.20
2023-03-22T12:31:14.169Z,1.27
2023-03-22T12:33:48.293Z,3.58
2023-03-22T12:36:22.136Z,1.70
2023-03-22T12:38:54.476Z,2.05
2023-03-22T12:41:31.406Z,2.03
2023-03-22T12:44:02.956Z,2.78
2023-03-22T12:46:35.711Z,1.65
2023-03-22T12:49:12.493Z,1.40
2023-03-22T12:51:41.394Z,1.80
2023-03-22T12:54:13.546Z,1.85
2023-03-22T12:56:43.667Z,1.98
2023-03-22T12:59:22.041Z,1.15
2023-03-22T13:07:42.624Z,2.83
2023-03-22T13:21:24.618Z,2.67
2023-03-22T13:26:53.613Z,1.45
2023-03-22T13:29:25.314Z,1.48
2023-03-22T13:34:49.164Z,1.80
2023-03-22T13:37:47.160Z,1.75
2023-03-22T13:42:51.487Z,1.35
2023-03-22T13:45:33.539Z,1.15
2023-03-22T13:50:40.091Z,1.73
2023-03-22T13:53:21.586Z,1.20
2023-03-22T14:01:07.014Z,2.28
2023-03-22T14:03:41.489Z,1.95
2023-03-22T14:06:16.126Z,1.95
2023-03-22T14:08:45.879Z,1.40
2023-03-22T14:13:52.071Z,1.63
2023-03-22T14:16:33.636Z,1.40
2023-03-22T14:19:00.474Z,1.15
2023-03-22T14:21:35.467Z,1.13
